createdAt,value
2023-05-29T00:04:02.176Z,3.58
2023-05-29T00:09:03.862Z,3.35
2023-05-29T00:14:06.062Z,3.53
2023-05-29T00:19:10.005Z,4.18
2023-05-29T00:24:11.533Z,3.70
2023-05-29T00:29:13.043Z,3.50
2023-05-29T00:34:14.496Z,3.70
2023-05-29T00:39:16.425Z,3.63
2023-05-29T00:44:22.188Z,3.53
2023-05-29T00:49:24.482Z,4.63
2023-05-29T00:54:31.116Z,3.80
2023-05-29T00:59:34.298Z,3.75
2023-05-29T01:04:35.866Z,3.67
2023-05-29T01:09:38.090Z,3.85
2023-05-29T01:14:59.019Z,3.60
2023-05-29T01:20:06.033Z,4.22
2023-05-29T01:25:36.365Z,3.92
2023-05-29T01:30:39.197Z,3.80
2023-05-29T01:35:40.910Z,4.13
2023-05-29T01:40:42.379Z,3.92
2023-05-29T01:45:44.756Z,4.15
2023-05-29T01:50:47.281Z,3.60
2023-05-29T01:55:49.037Z,4.65
2023-05-29T02:00:50.644Z,3.75
2023-05-29T02:05:52.117Z,3.92
2023-05-29T02:10:54.349Z,4.30
2023-05-29T02:15:56.043Z,4.32
2023-05-29T02:20:57.865Z,4.00
2023-05-29T02:25:59.673Z,4.05
2023-05-29T02:31:01.183Z,4.45
2023-05-29T02:36:02.640Z,5.22
2023-05-29T02:41:04.182Z,3.72
2023-05-29T02:46:05.787Z,4.30
2023-05-29T02:51:07.444Z,4.25
2023-05-29T02:56:10.107Z,4.40
2023-05-29T03:01:11.921Z,5.38
2023-05-29T03:06:18.909Z,4.15
2023-05-29T03:11:22.101Z,4.88
2023-05-29T03:16:23.686Z,4.93
2023-05-29T03:21:25.528Z,4.50
2023-05-29T03:26:27.584Z,5.20
2023-05-29T03:31:29.162Z,4.70
2023-05-29T03:36:30.619Z,5.20
2023-05-29T03:41:32.066Z,5.68
2023-05-29T03:46:33.556Z,5.70
2023-05-29T03:51:35.151Z,5.03
2023-05-29T03:56:37.092Z,5.57
2023-05-29T04:01:38.715Z,5.45
2023-05-29T04:06:40.245Z,5.55
2023-05-29T04:11:42.783Z,6.05
2023-05-29T04:16:44.523Z,5.50
2023-05-29T04:21:46.414Z,5.80
2023-05-29T04:26:48.009Z,6.43
2023-05-29T04:31:49.525Z,6.80
2023-05-29T04:36:50.970Z,6.68
2023-05-29T04:41:52.946Z,6.78
2023-05-29T04:46:54.507Z,6.60
2023-05-29T04:51:56.104Z,7.07
2023-05-29T04:56:57.554Z,6.65
2023-05-29T05:01:59.044Z,6.95
2023-05-29T05:07:00.533Z,6.65
2023-05-29T05:12:02.440Z,6.22
2023-05-29T05:17:04.071Z,6.00
2023-05-29T05:22:05.517Z,5.28
2023-05-29T05:27:07.467Z,4.50
2023-05-29T05:32:08.990Z,4.80
2023-05-29T05:37:11.088Z,4.82
2023-05-29T05:42:12.523Z,4.43
2023-05-29T05:47:14.337Z,4.50
2023-05-29T05:52:16.078Z,4.47
2023-05-29T05:57:17.536Z,4.30
2023-05-29T06:02:19.126Z,5.03
2023-05-29T06:07:20.648Z,3.78
2023-05-29T06:12:22.196Z,5.10
2023-05-29T06:17:24.730Z,4.55
2023-05-29T06:22:26.222Z,4.78
2023-05-29T06:27:27.687Z,4.45
2023-05-29T06:32:29.649Z,4.10
2023-05-29T06:37:31.519Z,4.07
2023-05-29T06:42:33.009Z,4.30
2023-05-29T06:47:34.573Z,4.13
2023-05-29T06:52:36.209Z,3.83
2023-05-29T06:57:37.681Z,4.28
2023-05-29T07:02:39.282Z,3.28
2023-05-29T07:07:40.841Z,3.17
2023-05-29T07:12:42.319Z,3.25
2023-05-29T07:17:43.821Z,4.00
2023-05-29T07:22:45.677Z,2.80
2023-05-29T07:27:47.176Z,3.17
2023-05-29T07:32:48.663Z,3.28
2023-05-29T07:37:50.857Z,2.58
2023-05-29T07:42:52.339Z,2.42
2023-05-29T07:47:53.809Z,2.38
2023-05-29T07:52:56.997Z,2.55
2023-05-29T07:57:58.380Z,2.65
2023-05-29T08:02:59.961Z,2.25
2023-05-29T08:08:01.679Z,2.30
2023-05-29T08:13:03.215Z,2.15
2023-05-29T08:18:05.443Z,1.70
2023-05-29T08:23:07.014Z,1.70
2023-05-29T08:28:08.484Z,2.47
2023-05-29T08:33:10.072Z,1.83
2023-05-29T08:38:11.610Z,2.25
2023-05-29T08:43:20.919Z,2.00
2023-05-29T08:48:26.339Z,2.08
2023-05-29T08:53:27.883Z,2.15
2023-05-29T08:58:29.516Z,2.22
2023-05-29T09:03:31.078Z,1.80
2023-05-29T09:08:34.087Z,2.00
2023-05-29T09:13:35.858Z,2.13
2023-05-29T09:18:37.354Z,2.20
2023-05-29T09:23:38.809Z,2.28
2023-05-29T09:28:40.974Z,2.15
2023-05-29T09:33:49.907Z,1.90
2023-05-29T09:38:54.958Z,2.30
2023-05-29T09:44:01.903Z,2.28
2023-05-29T09:49:06.825Z,2.67
2023-05-29T09:54:18.215Z,2.75
2023-05-29T09:59:22.188Z,2.50
2023-05-29T10:04:25.259Z,2.70
2023-05-29T10:09:28.455Z,2.65
2023-05-29T10:14:32.844Z,2.45
2023-05-29T10:19:37.918Z,2.95
2023-05-29T10:24:39.749Z,2.50
2023-05-29T10:29:54.554Z,2.85
2023-05-29T10:35:09.978Z,2.53
2023-05-29T10:40:15.719Z,2.70
2023-05-29T10:45:29.452Z,2.75
2023-05-29T10:50:39.378Z,2.33
2023-05-29T10:55:42.067Z,2.28
2023-05-29T11:00:43.981Z,2.45
2023-05-29T11:06:09.095Z,2.58
2023-05-29T11:11:16.754Z,2.45
2023-05-29T11:16:37.984Z,2.30
2023-05-29T11:21:54.126Z,2.63
2023-05-29T11:26:57.467Z,2.60
2023-05-29T11:32:03.984Z,2.35
2023-05-29T11:37:05.987Z,2.67
2023-05-29T11:42:08.646Z,2.47
2023-05-29T11:47:10.147Z,2.72
2023-05-29T11:57:22.244Z,2.30
2023-05-29T12:02:26.265Z,2.65
2023-05-29T12:07:27.810Z,2.38
2023-05-29T12:12:30.528Z,2.63
2023-05-29T12:17:32.591Z,2.72
2023-05-29T12:22:36.046Z,2.78
2023-05-29T12:27:43.491Z,2.30
2023-05-29T12:32:54.250Z,2.60
2023-05-29T12:38:00.927Z,2.47
2023-05-29T12:43:04.472Z,2.72
2023-05-29T12:48:10.872Z,2.42
2023-05-29T12:53:15.047Z,2.72
2023-05-29T12:58:16.964Z,2.50
2023-05-29T13:03:19.013Z,2.60
2023-05-29T13:08:21.376Z,2.42
2023-05-29T13:13:23.941Z,2.33
2023-05-29T13:18:25.454Z,2.10
2023-05-29T13:23:29.062Z,2.70
2023-05-29T13:28:30.870Z,2.38
2023-05-29T13:33:32.815Z,2.70
2023-05-29T13:38:34.262Z,2.30
2023-05-29T13:43:43.645Z,2.47
2023-05-29T13:48:46.483Z,2.58
2023-05-29T13:53:47.954Z,2.17
2023-05-29T13:58:49.413Z,2.50
2023-05-29T14:03:51.104Z,2.35
2023-05-29T14:08:52.886Z,2.50
2023-05-29T14:13:54.340Z,2.70
2023-05-29T14:18:55.796Z,2.50
2023-05-29T14:23:57.261Z,2.55
2023-05-29T14:29:09.386Z,2.40
2023-05-29T14:34:15.331Z,2.50
2023-05-29T14:39:16.842Z,2.70
2023-05-29T14:44:18.918Z,2.45
2023-05-29T14:49:20.819Z,2.88
2023-05-29T14:54:22.324Z,2.80
2023-05-29T14:59:24.477Z,2.50
2023-05-29T15:04:26.087Z,2.63
2023-05-29T15:09:27.774Z,2.75
2023-05-29T15:14:29.421Z,2.83
2023-05-29T15:19:31.526Z,2.80
2023-05-29T15:24:32.994Z,2.72
2023-05-29T15:29:36.072Z,3.45
2023-05-29T15:34:37.581Z,3.22
2023-05-29T15:39:39.771Z,2.90
2023-05-29T15:44:41.209Z,3.00
2023-05-29T15:49:42.656Z,3.42
2023-05-29T15:54:44.346Z,2.75
2023-05-29T15:59:45.932Z,3.67
2023-05-29T16:04:59.020Z,3.00
2023-05-29T16:10:07.894Z,3.47
2023-05-29T16:15:09.703Z,3.58
2023-05-29T16:20:12.149Z,3.65
2023-05-29T16:25:13.728Z,3.80
2023-05-29T16:30:15.370Z,3.70
2023-05-29T16:35:16.982Z,3.15
2023-05-29T16:40:21.109Z,3.42
2023-05-29T16:45:22.644Z,3.20
2023-05-29T16:50:24.824Z,3.42
2023-05-29T16:55:26.667Z,3.70
2023-05-29T17:00:28.341Z,3.28
2023-05-29T17:05:29.772Z,3.65
2023-05-29T17:10:34.066Z,3.45
2023-05-29T17:15:35.533Z,3.70
2023-05-29T17:20:37.080Z,4.50
2023-05-29T17:25:38.598Z,4.40
2023-05-29T17:30:40.084Z,3.80
2023-05-29T17:35:41.572Z,3.65
2023-05-29T17:40:43.077Z,3.40
2023-05-29T17:45:47.090Z,4.03
2023-05-29T17:50:48.773Z,3.50
2023-05-29T17:55:50.381Z,3.83
2023-05-29T18:00:52.256Z,3.75
2023-05-29T18:05:54.946Z,4.00
2023-05-29T18:10:57.003Z,4.25
2023-05-29T18:15:58.719Z,4.03
2023-05-29T18:21:00.348Z,3.75
2023-05-29T18:26:02.077Z,4.68
2023-05-29T18:31:03.698Z,3.72
2023-05-29T18:36:05.368Z,4.22
2023-05-29T18:41:07.011Z,4.35
2023-05-29T18:46:08.649Z,3.90
2023-05-29T18:51:11.463Z,4.03
2023-05-29T18:56:13.005Z,3.78
2023-05-29T19:01:29.973Z,3.72
2023-05-29T19:06:33.537Z,3.75
2023-05-29T19:11:35.089Z,4.15
2023-05-29T19:16:36.541Z,3.70
2023-05-29T19:21:38.420Z,4.00
2023-05-29T19:26:42.776Z,4.07
2023-05-29T19:31:44.291Z,3.85
2023-05-29T19:36:45.833Z,4.35
2023-05-29T19:41:47.305Z,4.10
2023-05-29T19:46:49.085Z,4.53
2023-05-29T19:51:59.107Z,4.97
2023-05-29T19:57:01.014Z,4.70
2023-05-29T20:02:02.855Z,4.25
2023-05-29T20:07:04.576Z,4.03
2023-05-29T20:12:06.973Z,4.10
2023-05-29T20:17:08.676Z,3.88
2023-05-29T20:22:10.220Z,3.65
2023-05-29T20:27:11.894Z,4.13
2023-05-29T20:32:13.414Z,3.75
2023-05-29T20:37:15.493Z,3.60
2023-05-29T20:42:17.532Z,3.88
2023-05-29T20:47:19.669Z,4.45
2023-05-29T20:52:21.977Z,3.67
2023-05-29T20:57:23.554Z,3.95
2023-05-29T21:02:25.067Z,3.67
2023-05-29T21:07:35.281Z,3.88
2023-05-29T21:12:37.167Z,3.65
2023-05-29T21:17:38.783Z,3.63
2023-05-29T21:22:40.535Z,3.75
2023-05-29T21:27:42.009Z,3.92
2023-05-29T21:32:43.652Z,3.90
2023-05-29T21:37:45.658Z,4.45
2023-05-29T21:42:51.762Z,4.18
2023-05-29T21:47:54.943Z,4.20
2023-05-29T21:52:56.709Z,4.30
2023-05-29T21:57:58.164Z,3.72
2023-05-29T22:02:59.888Z,3.83
2023-05-29T22:08:01.428Z,4.25
2023-05-29T22:13:03.691Z,4.15
2023-05-29T22:18:05.627Z,4.22
2023-05-29T22:23:17.046Z,4.00
2023-05-29T22:28:19.714Z,3.97
2023-05-29T22:33:21.891Z,4.10
2023-05-29T22:38:23.379Z,4.35
2023-05-29T22:43:24.844Z,3.90
2023-05-29T22:48:27.050Z,4.32
2023-05-29T22:53:28.756Z,4.00
2023-05-29T22:58:30.217Z,4.10
2023-05-29T23:03:31.845Z,3.92
2023-05-29T23:08:33.450Z,3.95
2023-05-29T23:13:34.947Z,4.00
2023-05-29T23:18:37.017Z,3.83
2023-05-29T23:23:38.797Z,3.65
2023-05-29T23:28:40.702Z,3.92
2023-05-29T23:33:42.898Z,4.15
2023-05-29T23:38:44.359Z,4.53
2023-05-29T23:43:46.184Z,4.00
2023-05-29T23:48:48.708Z,3.65
2023-05-29T23:53:50.259Z,3.85
2023-05-29T23:58:52.389Z,3.40
